Terminal Aerodrome Forecast
Issued by NWS Blacksburg, VA

Current Version | Previous Version | Text Only | Print | Product List | Glossary Off
Versions: 1 2 3 4 5 6 7 8 9 10 11 12 13 14 15 16 17

000
FTUS41 KRNK 091120
TAFBLF
TAF
KBLF 091120Z 0912/1012 00000KT P6SM -SN OVC035
      TEMPO 0912/0915 4SM -SN OVC015
     FM091700 27005KT P6SM OVC100
     FM091900 27007KT P6SM SCT200
     FM100000 28010KT P6SM OVC060
     FM100500 29012G22KT P6SM -SHSN OVC025=

USA.gov is the U.S. government's official web portal to all federal, state and local government web resources and services.